createdAt,value
2022-08-09T00:00:17.325Z,15.20
2022-08-09T00:02:49.230Z,15.30
2022-08-09T00:06:18.831Z,15.40
2022-08-09T00:08:31.299Z,15.50
2022-08-09T00:11:05.919Z,15.70
2022-08-09T00:13:51.442Z,15.90
2022-08-09T00:16:25.980Z,16.10
2022-08-09T00:19:10.177Z,16.20
2022-08-09T00:21:43.163Z,16.30
2022-08-09T00:24:27.225Z,16.50
2022-08-09T00:26:57.602Z,16.60
2022-08-09T00:30:09.902Z,16.80
2022-08-09T00:32:26.808Z,17.10
2022-08-09T00:34:56.977Z,17.00
2022-08-09T00:37:32.246Z,17.10
2022-08-09T00:40:13.263Z,17.20
2022-08-09T00:44:16.633Z,17.40
2022-08-09T00:45:36.021Z,17.80
2022-08-09T00:48:06.718Z,18.30
2022-08-09T00:50:37.758Z,18.50
2022-08-09T00:53:10.349Z,18.70
2022-08-09T00:56:04.027Z,18.90
2022-08-09T00:58:34.593Z,19.00
2022-08-09T01:01:11.111Z,18.80
2022-08-09T01:03:57.408Z,18.90
2022-08-09T01:06:54.215Z,19.20
2022-08-09T01:09:37.149Z,19.70
2022-08-09T01:12:19.269Z,20.20
2022-08-09T01:15:05.842Z,20.50
2022-08-09T01:17:57.723Z,20.70
2022-08-09T01:20:44.361Z,21.20
2022-08-09T01:24:02.179Z,21.40
2022-08-09T01:27:07.750Z,22.00
2022-08-09T01:29:56.432Z,22.10
2022-08-09T01:32:34.791Z,22.60
2022-08-09T01:35:29.177Z,22.80
2022-08-09T01:38:14.831Z,23.20
2022-08-09T01:40:53.033Z,23.50
2022-08-09T01:43:41.920Z,24.10
2022-08-09T01:46:26.465Z,24.50
2022-08-09T01:49:10.195Z,24.50
2022-08-09T01:51:54.291Z,24.90
2022-08-09T01:54:32.870Z,25.60
2022-08-09T01:57:08.733Z,25.70
2022-08-09T01:59:51.819Z,26.10
2022-08-09T02:02:31.028Z,26.50
2022-08-09T02:05:15.332Z,27.10
2022-08-09T02:08:40.229Z,27.30
2022-08-09T02:10:51.258Z,27.60
2022-08-09T02:13:26.128Z,27.70
2022-08-09T02:16:12.533Z,28.10
2022-08-09T02:18:47.843Z,28.20
2022-08-09T02:21:24.390Z,28.70
2022-08-09T02:24:01.964Z,29.10
2022-08-09T02:26:35.620Z,29.70
2022-08-09T02:29:17.365Z,30.10
2022-08-09T02:31:51.013Z,30.60
2022-08-09T02:34:41.295Z,30.80
2022-08-09T02:37:24.094Z,31.10
2022-08-09T02:40:13.518Z,31.00
2022-08-09T02:42:52.008Z,31.10
2022-08-09T02:45:29.741Z,31.80
2022-08-09T02:48:12.344Z,32.00
2022-08-09T02:51:01.772Z,32.80
2022-08-09T02:53:38.477Z,33.20
2022-08-09T02:56:15.013Z,33.90
2022-08-09T02:58:46.553Z,33.50
2022-08-09T03:01:21.918Z,33.70
2022-08-09T03:04:19.423Z,33.50
2022-08-09T03:06:49.949Z,34.20
2022-08-09T03:09:21.542Z,35.10
2022-08-09T03:12:06.716Z,36.10
2022-08-09T03:14:41.651Z,36.70
2022-08-09T03:17:16.556Z,37.30
2022-08-09T03:19:58.712Z,37.40
2022-08-09T03:22:41.700Z,37.80
2022-08-09T03:25:26.603Z,38.60
2022-08-09T03:28:11.093Z,38.90
2022-08-09T03:30:43.425Z,39.40
2022-08-09T03:33:19.133Z,39.00
2022-08-09T03:36:15.816Z,40.00
2022-08-09T03:38:43.494Z,39.60
2022-08-09T03:41:16.532Z,39.50
2022-08-09T03:44:03.535Z,39.40
2022-08-09T03:46:36.232Z,39.60
2022-08-09T03:49:08.668Z,40.00
2022-08-09T03:51:58.458Z,39.70
2022-08-09T03:54:34.428Z,39.90
2022-08-09T03:57:18.429Z,40.00
2022-08-09T03:59:54.128Z,40.00
2022-08-09T04:02:30.519Z,40.30
2022-08-09T04:05:06.574Z,40.20
2022-08-09T04:07:52.502Z,40.50
2022-08-09T04:10:28.946Z,40.10
2022-08-09T04:13:03.938Z,40.10
2022-08-09T04:15:51.992Z,41.20
2022-08-09T04:18:25.042Z,41.30
2022-08-09T04:20:54.998Z,41.00
2022-08-09T04:23:25.823Z,41.00
2022-08-09T04:25:56.111Z,41.10
2022-08-09T04:28:33.300Z,40.90
2022-08-09T04:31:08.551Z,41.20
2022-08-09T04:33:53.240Z,41.80
2022-08-09T04:36:30.126Z,41.90
2022-08-09T04:39:03.422Z,41.70
2022-08-09T04:41:33.924Z,41.80
2022-08-09T04:44:14.385Z,41.60
2022-08-09T04:46:58.314Z,41.70
2022-08-09T04:49:53.631Z,41.20
2022-08-09T04:52:27.001Z,40.80
2022-08-09T04:55:04.756Z,40.80
2022-08-09T04:57:54.250Z,41.70
2022-08-09T05:00:31.769Z,41.70
2022-08-09T05:03:30.153Z,42.40
2022-08-09T05:06:06.831Z,42.80
2022-08-09T05:08:36.582Z,43.60
2022-08-09T05:11:07.840Z,43.50
2022-08-09T05:13:38.795Z,44.30
2022-08-09T05:16:09.035Z,43.50
2022-08-09T05:18:57.520Z,43.50
2022-08-09T05:21:30.018Z,43.00
2022-08-09T05:24:06.828Z,42.60
2022-08-09T05:26:45.963Z,42.50
2022-08-09T05:29:22.015Z,42.80
2022-08-09T05:31:58.508Z,42.50
2022-08-09T05:34:30.900Z,42.10
2022-08-09T05:37:05.263Z,42.00
2022-08-09T05:39:42.610Z,41.00
2022-08-09T05:42:17.742Z,40.10
2022-08-09T05:44:52.270Z,39.40
2022-08-09T05:47:23.700Z,38.20
2022-08-09T05:50:31.137Z,38.20
2022-08-09T05:52:53.493Z,37.00
2022-08-09T05:55:24.271Z,36.20
2022-08-09T05:57:56.662Z,35.30
2022-08-09T06:00:29.522Z,34.40
2022-08-09T06:02:59.666Z,32.00
2022-08-09T06:05:31.186Z,31.60
2022-08-09T06:08:24.693Z,30.50
2022-08-09T06:10:55.450Z,30.30
2022-08-09T06:13:28.418Z,30.00
2022-08-09T06:16:05.047Z,29.90
2022-08-09T06:18:35.301Z,28.80
2022-08-09T06:21:06.781Z,28.40
2022-08-09T06:23:58.051Z,27.40
2022-08-09T06:26:28.513Z,26.00
2022-08-09T06:29:05.126Z,25.50
2022-08-09T06:31:40.329Z,24.10
2022-08-09T06:34:26.383Z,24.00
2022-08-09T06:37:00.206Z,22.90
2022-08-09T06:39:49.238Z,22.40
2022-08-09T06:42:20.295Z,20.70
2022-08-09T06:44:55.467Z,20.10
2022-08-09T06:47:29.955Z,19.10
2022-08-09T06:50:16.718Z,18.20
2022-08-09T06:52:49.078Z,17.50
2022-08-09T06:55:23.051Z,16.40
2022-08-09T06:58:02.721Z,15.20
2022-08-09T07:00:56.410Z,14.50
2022-08-09T07:03:27.979Z,13.40
2022-08-09T07:06:04.792Z,11.90
2022-08-09T07:08:37.391Z,11.30
2022-08-09T07:11:12.458Z,10.70
2022-08-09T07:13:45.055Z,10.60
2022-08-09T07:16:41.579Z,10.00
2022-08-09T07:19:22.873Z,8.50
2022-08-09T07:21:55.935Z,7.90
2022-08-09T07:24:32.577Z,7.80
2022-08-09T07:27:11.080Z,8.40
2022-08-09T07:29:58.373Z,8.50
2022-08-09T07:32:32.010Z,8.90
2022-08-09T07:35:02.722Z,8.20
2022-08-09T07:37:43.444Z,7.90
2022-08-09T07:40:18.864Z,7.20
2022-08-09T07:42:51.523Z,7.50
2022-08-09T07:45:39.882Z,7.50
2022-08-09T07:48:25.850Z,6.90
2022-08-09T07:51:09.329Z,7.20
2022-08-09T07:54:05.414Z,6.80
2022-08-09T07:56:38.874Z,6.20
2022-08-09T07:59:24.931Z,6.20
2022-08-09T08:01:56.050Z,5.10
2022-08-09T08:04:32.233Z,4.90
2022-08-09T08:07:15.121Z,4.40
2022-08-09T08:10:12.031Z,4.60
2022-08-09T08:12:45.233Z,4.70
2022-08-09T08:15:18.122Z,4.70
2022-08-09T08:17:58.267Z,4.40
2022-08-09T08:20:32.685Z,4.40
2022-08-09T08:23:17.154Z,3.60
2022-08-09T08:25:50.456Z,2.90
2022-08-09T08:28:25.666Z,2.70
2022-08-09T08:31:10.407Z,2.60
2022-08-09T08:33:52.329Z,2.20
2022-08-09T08:36:28.996Z,1.30
2022-08-09T08:39:00.471Z,1.00
2022-08-09T08:41:50.750Z,1.00
2022-08-09T08:44:23.144Z,1.00
2022-08-09T08:47:04.865Z,1.00
2022-08-09T08:49:48.310Z,1.00
2022-08-09T08:55:13.703Z,1.00
2022-08-09T08:57:57.633Z,1.00
2022-08-09T09:00:30.470Z,1.00
2022-08-09T09:03:11.850Z,1.00
2022-08-09T09:05:59.838Z,1.00
2022-08-09T09:08:41.123Z,1.00
2022-08-09T09:11:13.552Z,1.00
2022-08-09T09:13:56.933Z,1.00
2022-08-09T09:16:32.276Z,1.00
2022-08-09T09:22:07.883Z,1.00
2022-08-09T09:24:44.819Z,1.00
2022-08-09T09:28:04.499Z,1.00
2022-08-09T09:33:13.673Z,1.00
2022-08-09T09:36:01.865Z,1.00
2022-08-09T09:38:48.264Z,1.00
2022-08-09T09:41:49.259Z,1.00
2022-08-09T09:44:27.776Z,1.00
2022-08-09T09:47:09.145Z,1.00
2022-08-09T09:50:07.483Z,1.00
2022-08-09T09:52:35.872Z,1.00
2022-08-09T09:55:24.286Z,1.00
2022-08-09T09:58:16.734Z,1.00
2022-08-09T10:00:54.736Z,1.00
2022-08-09T10:03:56.391Z,1.00
2022-08-09T10:06:32.484Z,1.00
2022-08-09T10:09:11.847Z,1.00
2022-08-09T10:12:07.841Z,1.00
2022-08-09T10:14:43.965Z,1.00
2022-08-09T10:17:40.560Z,1.00
2022-08-09T10:20:32.847Z,1.00
2022-08-09T10:23:20.415Z,1.00
2022-08-09T10:26:07.219Z,1.00
2022-08-09T10:28:41.858Z,1.00
2022-08-09T10:34:32.303Z,1.00
2022-08-09T10:36:57.850Z,1.00
2022-08-09T10:39:28.922Z,1.00
2022-08-09T10:41:57.887Z,1.00
2022-08-09T10:44:31.677Z,1.00
2022-08-09T10:48:13.471Z,1.00
2022-08-09T10:50:49.416Z,1.00
2022-08-09T10:53:46.937Z,1.00
2022-08-09T10:56:25.614Z,1.00
2022-08-09T10:58:56.385Z,1.00
2022-08-09T11:03:13.092Z,1.00
2022-08-09T11:04:33.711Z,1.00
2022-08-09T11:07:58.230Z,1.00
2022-08-09T11:10:57.794Z,1.00
2022-08-09T11:13:51.106Z,1.00
2022-08-09T11:16:40.750Z,1.00
2022-08-09T11:19:11.513Z,1.00
2022-08-09T11:22:10.685Z,1.00
2022-08-09T11:25:09.862Z,1.00
2022-08-09T11:28:04.791Z,1.00
2022-08-09T11:30:38.201Z,1.00
2022-08-09T11:33:26.501Z,1.00
2022-08-09T11:35:59.837Z,1.00
2022-08-09T11:38:33.957Z,1.00
2022-08-09T11:41:37.642Z,1.00
2022-08-09T11:44:10.064Z,1.00
2022-08-09T11:46:58.214Z,1.00
2022-08-09T11:50:55.534Z,1.00
2022-08-09T11:53:58.915Z,1.00
2022-08-09T11:56:41.318Z,1.00
2022-08-09T11:59:30.617Z,1.00
2022-08-09T12:02:35.190Z,1.00
2022-08-09T12:04:58.710Z,1.00
2022-08-09T12:07:34.424Z,1.00
2022-08-09T12:10:14.459Z,1.00
2022-08-09T12:13:03.603Z,1.00
2022-08-09T12:15:52.798Z,1.00
2022-08-09T12:18:30.098Z,1.00
2022-08-09T12:21:02.788Z,1.00
2022-08-09T12:23:57.915Z,1.00
2022-08-09T12:26:26.348Z,1.00
2022-08-09T12:29:29.784Z,1.00
2022-08-09T12:31:58.688Z,1.00
2022-08-09T12:34:37.588Z,1.00
2022-08-09T12:37:21.614Z,1.00
2022-08-09T12:40:09.575Z,1.00
2022-08-09T12:42:44.421Z,1.00
2022-08-09T12:45:33.951Z,1.00
2022-08-09T12:48:10.873Z,1.00
2022-08-09T12:50:51.173Z,1.00
2022-08-09T12:53:36.951Z,1.00
2022-08-09T12:56:43.964Z,1.00
2022-08-09T12:59:12.286Z,1.00
2022-08-09T13:01:49.731Z,1.00
2022-08-09T13:04:36.994Z,1.00
2022-08-09T13:07:16.656Z,1.00
2022-08-09T13:09:55.193Z,1.00
2022-08-09T13:12:25.166Z,1.00
2022-08-09T13:14:54.981Z,1.00
2022-08-09T13:18:02.703Z,1.00
2022-08-09T13:20:22.763Z,1.00
2022-08-09T13:23:05.462Z,1.00
2022-08-09T13:25:53.256Z,1.00
2022-08-09T13:28:35.512Z,1.00
2022-08-09T13:32:14.906Z,1.00
2022-08-09T13:34:00.304Z,1.00
2022-08-09T13:36:40.826Z,1.00
2022-08-09T13:41:46.064Z,1.00
2022-08-09T13:42:03.747Z,1.00
2022-08-09T13:44:34.628Z,1.00
2022-08-09T13:47:29.477Z,1.00
2022-08-09T13:49:58.049Z,1.00
2022-08-09T13:52:31.959Z,1.00
2022-08-09T13:55:04.985Z,1.00
2022-08-09T13:57:39.815Z,1.00
2022-08-09T14:00:15.459Z,1.00
2022-08-09T14:03:03.863Z,1.00
2022-08-09T14:05:58.554Z,1.00
2022-08-09T14:08:28.370Z,1.00
2022-08-09T14:10:59.374Z,1.00
2022-08-09T14:14:24.822Z,1.00
2022-08-09T14:16:28.068Z,1.00
2022-08-09T14:18:58.172Z,1.00
2022-08-09T14:21:29.725Z,1.00
2022-08-09T14:24:05.493Z,1.00
2022-08-09T14:26:39.975Z,1.00
2022-08-09T14:29:25.709Z,1.00
2022-08-09T14:32:05.985Z,1.00
2022-08-09T14:34:41.169Z,1.00
2022-08-09T14:37:11.939Z,1.00
2022-08-09T14:39:47.802Z,1.00
2022-08-09T14:42:28.869Z,1.00
2022-08-09T14:46:39.141Z,1.00
2022-08-09T14:48:02.413Z,1.00
2022-08-09T14:50:36.879Z,1.00
2022-08-09T14:53:12.017Z,1.00
2022-08-09T14:55:49.837Z,1.00
2022-08-09T14:58:19.768Z,1.00
2022-08-09T15:00:51.319Z,1.00
2022-08-09T15:03:21.955Z,1.00
2022-08-09T15:05:55.635Z,1.00
2022-08-09T15:08:30.414Z,1.00
2022-08-09T15:11:00.891Z,1.00
2022-08-09T15:13:48.355Z,1.00
2022-08-09T15:16:20.803Z,1.00
2022-08-09T15:18:49.900Z,1.00
2022-08-09T15:21:56.828Z,1.00
2022-08-09T15:24:19.173Z,1.00
2022-08-09T15:26:55.362Z,1.00
2022-08-09T15:30:55.475Z,1.00
2022-08-09T15:32:29.414Z,1.00
2022-08-09T15:35:01.007Z,1.00
2022-08-09T15:37:55.962Z,1.00
2022-08-09T15:40:32.411Z,1.00
2022-08-09T15:43:02.723Z,1.00
2022-08-09T15:46:07.439Z,1.00
2022-08-09T15:48:29.372Z,1.00
2022-08-09T15:51:00.862Z,1.00
2022-08-09T15:54:04.527Z,1.00
2022-08-09T15:56:28.503Z,1.00
2022-08-09T15:58:59.895Z,1.00
2022-08-09T16:01:31.458Z,1.00
2022-08-09T16:04:04.660Z,1.00
2022-08-09T16:06:35.554Z,1.00
2022-08-09T16:09:07.299Z,1.00
2022-08-09T16:11:37.595Z,1.00
2022-08-09T16:14:07.925Z,1.00
2022-08-09T16:16:38.941Z,1.00
2022-08-09T16:19:08.997Z,1.00
2022-08-09T16:21:38.196Z,1.00
2022-08-09T16:24:19.933Z,1.00
2022-08-09T16:26:59.516Z,1.00
2022-08-09T16:29:37.423Z,1.00
2022-08-09T16:32:20.066Z,1.00
2022-08-09T16:34:58.431Z,1.00
2022-08-09T16:37:53.107Z,1.00
2022-08-09T16:40:30.020Z,1.00
2022-08-09T16:43:10.793Z,1.00
2022-08-09T16:45:44.383Z,1.00
2022-08-09T16:48:42.731Z,1.00
2022-08-09T16:51:07.659Z,1.00
2022-08-09T16:53:47.204Z,1.00
2022-08-09T16:56:27.028Z,1.00
2022-08-09T16:59:10.200Z,1.00
2022-08-09T17:01:43.848Z,1.00
2022-08-09T17:04:25.885Z,1.00
2022-08-09T17:08:46.353Z,1.00
2022-08-09T17:09:47.929Z,1.00
2022-08-09T17:12:19.644Z,1.00
2022-08-09T17:14:54.938Z,1.00
2022-08-09T17:17:27.895Z,1.00
2022-08-09T17:20:28.898Z,1.00
2022-08-09T17:22:50.183Z,1.00
2022-08-09T17:25:21.985Z,1.00
2022-08-09T17:27:54.004Z,1.00
2022-08-09T17:30:28.258Z,1.00
2022-08-09T17:33:01.405Z,1.00
2022-08-09T17:35:41.352Z,1.00
2022-08-09T17:38:32.126Z,1.00
2022-08-09T17:41:02.878Z,1.00
2022-08-09T17:43:36.986Z,1.00
2022-08-09T17:46:09.953Z,1.00
2022-08-09T17:48:51.870Z,1.00
2022-08-09T17:51:22.488Z,1.00
2022-08-09T17:53:55.796Z,1.00
2022-08-09T17:56:35.177Z,1.00
2022-08-09T17:59:11.562Z,1.00
2022-08-09T18:02:06.401Z,1.00
2022-08-09T18:04:38.624Z,1.00
2022-08-09T18:07:09.044Z,1.00
2022-08-09T18:10:04.226Z,1.00
2022-08-09T18:13:38.977Z,1.00
2022-08-09T18:15:50.348Z,1.00
2022-08-09T18:18:25.584Z,1.00
2022-08-09T18:21:11.612Z,1.00
2022-08-09T18:24:09.514Z,1.00
2022-08-09T18:26:33.827Z,1.00
2022-08-09T18:30:39.436Z,1.00
2022-08-09T18:31:56.361Z,1.00
2022-08-09T18:34:29.122Z,1.00
2022-08-09T18:36:58.045Z,1.00
2022-08-09T18:39:32.790Z,1.00
2022-08-09T18:42:08.773Z,1.00
2022-08-09T18:44:38.112Z,1.00
2022-08-09T18:47:15.895Z,1.00
2022-08-09T18:49:47.286Z,1.00
2022-08-09T18:52:28.521Z,1.00
2022-08-09T18:55:04.310Z,1.00
2022-08-09T18:57:43.209Z,1.00
2022-08-09T19:00:20.223Z,1.00
2022-08-09T19:02:50.951Z,1.00
2022-08-09T19:05:48.953Z,1.00
2022-08-09T19:08:18.262Z,1.00
2022-08-09T19:10:49.197Z,1.00
2022-08-09T19:13:23.154Z,1.00
2022-08-09T19:16:09.181Z,1.00
2022-08-09T19:18:43.746Z,1.00
2022-08-09T19:21:15.782Z,1.00
2022-08-09T19:24:33.205Z,1.00
2022-08-09T19:26:37.724Z,1.00
2022-08-09T19:29:17.684Z,1.00
2022-08-09T19:31:51.734Z,1.00
2022-08-09T19:34:24.566Z,1.00
2022-08-09T19:36:58.197Z,1.00
2022-08-09T19:40:02.667Z,1.00
2022-08-09T19:42:19.204Z,1.00
2022-08-09T19:44:51.215Z,1.00
2022-08-09T19:47:23.712Z,1.00
2022-08-09T19:50:49.757Z,1.00
2022-08-09T19:52:51.607Z,1.20
2022-08-09T19:55:30.813Z,1.40
2022-08-09T19:58:15.890Z,1.60
2022-08-09T20:00:47.341Z,1.60
2022-08-09T20:04:18.549Z,1.70
2022-08-09T20:06:10.568Z,2.00
2022-08-09T20:08:56.737Z,2.20
2022-08-09T20:11:27.338Z,2.20
2022-08-09T20:14:15.432Z,2.50
2022-08-09T20:16:53.727Z,2.80
2022-08-09T20:19:49.236Z,2.90
2022-08-09T20:22:13.989Z,3.20
2022-08-09T20:24:54.325Z,3.40
2022-08-09T20:27:23.981Z,3.70
2022-08-09T20:29:53.281Z,4.00
2022-08-09T20:32:42.075Z,4.20
2022-08-09T20:35:12.186Z,4.90
2022-08-09T20:38:22.293Z,4.70
2022-08-09T20:40:35.318Z,5.00
2022-08-09T20:43:18.899Z,5.10
2022-08-09T20:46:00.753Z,5.40
2022-08-09T20:48:42.801Z,5.60
2022-08-09T20:51:19.341Z,5.90
2022-08-09T20:53:49.103Z,6.20
2022-08-09T20:56:22.070Z,6.40
2022-08-09T20:58:58.831Z,6.70
2022-08-09T21:01:34.420Z,6.90
2022-08-09T21:05:54.407Z,7.20
2022-08-09T21:07:12.503Z,7.50
2022-08-09T21:09:55.613Z,7.90
2022-08-09T21:15:23.582Z,8.40
2022-08-09T21:18:20.928Z,8.80
2022-08-09T21:20:54.112Z,9.20
2022-08-09T21:23:26.498Z,9.70
2022-08-09T21:26:12.523Z,10.10
2022-08-09T21:28:55.804Z,10.50
2022-08-09T21:31:49.138Z,10.80
2022-08-09T21:34:21.137Z,11.10
2022-08-09T21:36:58.442Z,11.40
2022-08-09T21:39:28.190Z,11.90
2022-08-09T21:42:11.839Z,12.20
2022-08-09T21:44:42.850Z,12.50
2022-08-09T21:47:18.093Z,12.60
2022-08-09T21:49:48.279Z,13.00
2022-08-09T21:52:21.026Z,13.30
2022-08-09T21:54:59.572Z,13.70
2022-08-09T21:57:39.532Z,14.20
2022-08-09T22:00:32.477Z,14.70
2022-08-09T22:03:05.950Z,15.10
2022-08-09T22:05:41.927Z,15.60
2022-08-09T22:08:15.392Z,16.10
2022-08-09T22:11:49.498Z,16.90
2022-08-09T22:13:39.360Z,17.30
2022-08-09T22:16:13.772Z,18.30
2022-08-09T22:18:52.880Z,18.90
2022-08-09T22:21:27.397Z,20.10
2022-08-09T22:24:01.113Z,20.90
2022-08-09T22:26:35.143Z,21.60
2022-08-09T22:29:09.990Z,22.10
2022-08-09T22:31:50.525Z,22.60
2022-08-09T22:34:26.884Z,23.70
2022-08-09T22:36:56.710Z,24.40
2022-08-09T22:39:57.135Z,25.30
2022-08-09T22:42:22.415Z,26.30
2022-08-09T22:48:06.244Z,27.70
2022-08-09T22:48:12.378Z,28.70
2022-08-09T22:50:34.398Z,29.60
2022-08-09T22:53:04.340Z,31.20
2022-08-09T22:56:29.125Z,32.70
2022-08-09T22:58:32.472Z,34.10
2022-08-09T23:01:04.242Z,35.90
2022-08-09T23:04:04.133Z,38.20
2022-08-09T23:06:48.438Z,41.30
2022-08-09T23:09:16.772Z,44.40
2022-08-09T23:11:46.203Z,46.70
2022-08-09T23:14:17.537Z,50.00
2022-08-09T23:16:59.092Z,52.10
2022-08-09T23:19:29.228Z,54.90
2022-08-09T23:22:18.123Z,55.90
2022-08-09T23:24:48.693Z,56.40
2022-08-09T23:27:17.719Z,58.70
2022-08-09T23:29:46.532Z,62.60
2022-08-09T23:32:15.375Z,66.40
2022-08-09T23:34:45.905Z,73.20
2022-08-09T23:37:14.986Z,77.30
2022-08-09T23:39:46.621Z,81.50
2022-08-09T23:42:15.860Z,86.80
2022-08-09T23:44:44.851Z,90.20
2022-08-09T23:47:13.755Z,91.40
2022-08-09T23:49:42.545Z,92.20
2022-08-09T23:52:12.917Z,93.50
2022-08-09T23:54:45.390Z,94.10
2022-08-09T23:57:15.135Z,95.50
